createdAt,value
2017-01-20T08:00:27.944Z,979
2017-01-20T08:01:27.898Z,979.01
2017-01-20T08:02:27.852Z,978.99
2017-01-20T08:03:27.808Z,979
2017-01-20T08:04:27.763Z,979.01
2017-01-20T08:05:27.717Z,979.03
2017-01-20T08:06:27.671Z,979.01
2017-01-20T08:07:27.624Z,979.05
2017-01-20T08:08:27.578Z,979.03
2017-01-20T08:09:27.531Z,979.07
2017-01-20T08:10:27.487Z,979.04
2017-01-20T08:11:27.442Z,979.05
2017-01-20T08:12:27.395Z,979.08
2017-01-20T08:13:27.347Z,979.11
2017-01-20T08:14:27.301Z,979.09
2017-01-20T08:15:27.255Z,979.15
2017-01-20T08:16:27.211Z,979.09
2017-01-20T08:17:27.164Z,979.1
2017-01-20T08:18:27.117Z,979.08
2017-01-20T08:19:27.072Z,979.09
2017-01-20T08:20:27.027Z,979.1
2017-01-20T08:21:26.979Z,979.13
2017-01-20T08:22:26.932Z,979.17
2017-01-20T08:23:26.888Z,979.15
2017-01-20T08:24:26.842Z,979.17
2017-01-20T08:25:26.795Z,979.17
2017-01-20T08:26:26.749Z,979.19
2017-01-20T08:27:26.705Z,979.14
2017-01-20T08:28:26.658Z,979.14
2017-01-20T08:29:26.613Z,979.11
2017-01-20T08:30:26.568Z,979.12
2017-01-20T08:31:26.521Z,979.13
2017-01-20T08:32:26.477Z,979.18
2017-01-20T08:33:26.430Z,979.2
2017-01-20T08:34:26.384Z,979.12
2017-01-20T08:35:26.338Z,979.2
2017-01-20T08:36:26.292Z,979.21
2017-01-20T08:37:26.247Z,979.2
2017-01-20T08:38:26.201Z,979.24
2017-01-20T08:39:26.155Z,979.22
2017-01-20T08:40:26.107Z,979.23
2017-01-20T08:41:26.065Z,979.22
2017-01-20T08:42:26.015Z,979.24
2017-01-20T08:43:25.973Z,979.25
2017-01-20T08:44:25.927Z,979.28
2017-01-20T08:45:25.880Z,979.31
2017-01-20T08:46:25.832Z,979.28
2017-01-20T08:47:25.788Z,979.29
2017-01-20T08:48:25.743Z,979.35
2017-01-20T08:49:25.697Z,979.35
2017-01-20T08:50:25.653Z,979.35
2017-01-20T08:51:25.605Z,979.35
2017-01-20T08:52:25.559Z,979.33
2017-01-20T08:53:25.515Z,979.3
2017-01-20T08:54:25.469Z,979.27
2017-01-20T08:55:25.422Z,979.28
2017-01-20T08:56:25.379Z,979.36
2017-01-20T08:57:25.332Z,979.32
2017-01-20T08:58:25.286Z,979.35
2017-01-20T08:59:25.241Z,979.37
2017-01-20T09:00:25.195Z,979.35
2017-01-20T09:01:25.151Z,979.38
2017-01-20T09:02:25.104Z,979.34
2017-01-20T09:03:25.059Z,979.35
2017-01-20T09:04:25.012Z,979.37
2017-01-20T09:05:24.967Z,979.35
2017-01-20T09:06:24.921Z,979.38
2017-01-20T09:07:24.878Z,979.34
2017-01-20T09:08:24.833Z,979.31
2017-01-20T09:09:24.784Z,979.34
2017-01-20T09:10:24.745Z,979.38
2017-01-20T09:11:24.697Z,979.35
2017-01-20T09:12:24.651Z,979.36
2017-01-20T09:13:24.605Z,979.31
2017-01-20T09:14:24.558Z,979.34
2017-01-20T09:15:24.513Z,979.33
2017-01-20T09:16:24.468Z,979.34
2017-01-20T09:17:24.424Z,979.37
2017-01-20T09:18:24.379Z,979.36
2017-01-20T09:19:24.334Z,979.38
2017-01-20T09:20:24.287Z,979.36
2017-01-20T09:21:24.244Z,979.35
2017-01-20T09:22:24.200Z,979.43
2017-01-20T09:23:24.152Z,979.39
2017-01-20T09:24:24.107Z,979.38
2017-01-20T09:25:24.062Z,979.48
2017-01-20T09:26:24.015Z,979.44
2017-01-20T09:27:23.970Z,979.43
2017-01-20T09:28:23.926Z,979.4
2017-01-20T09:29:23.883Z,979.43
2017-01-20T09:30:23.837Z,979.41
2017-01-20T09:31:23.791Z,979.44
2017-01-20T09:32:23.747Z,979.43
2017-01-20T09:33:23.702Z,979.43
2017-01-20T09:34:23.656Z,979.44
2017-01-20T09:35:23.611Z,979.46
2017-01-20T09:36:23.566Z,979.45
2017-01-20T09:37:23.527Z,979.43
2017-01-20T09:38:23.476Z,979.48
2017-01-20T09:39:23.430Z,979.47
2017-01-20T09:40:23.388Z,979.44
2017-01-20T09:41:23.342Z,979.48
2017-01-20T09:42:23.296Z,979.45
2017-01-20T09:43:23.250Z,979.46
2017-01-20T09:44:23.208Z,979.47
2017-01-20T09:45:23.163Z,979.53
2017-01-20T09:46:23.117Z,979.53
2017-01-20T09:47:23.072Z,979.49
2017-01-20T09:48:23.026Z,979.53
2017-01-20T09:49:22.982Z,979.52
2017-01-20T09:50:22.937Z,979.5
2017-01-20T09:51:22.894Z,979.54
2017-01-20T09:52:22.847Z,979.58
2017-01-20T09:53:22.803Z,979.56
2017-01-20T09:54:22.760Z,979.53
2017-01-20T09:55:22.713Z,979.57
2017-01-20T09:56:22.668Z,979.59
2017-01-20T09:57:22.622Z,979.56
2017-01-20T09:58:22.582Z,979.6
2017-01-20T09:59:22.533Z,979.53
2017-01-20T10:00:22.486Z,979.56
2017-01-20T10:01:22.444Z,979.51
2017-01-20T10:02:22.400Z,979.54
2017-01-20T10:03:22.353Z,979.55
2017-01-20T10:04:22.311Z,979.53
2017-01-20T10:05:22.264Z,979.53
2017-01-20T10:06:22.243Z,979.51
2017-01-20T10:07:22.179Z,979.55
2017-01-20T10:08:22.131Z,979.57
2017-01-20T10:09:22.088Z,979.47
2017-01-20T10:10:22.040Z,979.52
2017-01-20T10:11:21.996Z,979.46
2017-01-20T10:12:21.951Z,979.5
2017-01-20T10:13:21.906Z,979.5
2017-01-20T10:14:21.860Z,979.53
2017-01-20T10:15:21.817Z,979.54
2017-01-20T10:16:21.772Z,979.51
2017-01-20T10:17:21.730Z,979.53
2017-01-20T10:18:21.681Z,979.52
2017-01-20T10:19:21.638Z,979.49
2017-01-20T10:20:21.594Z,979.49
2017-01-20T10:21:21.547Z,979.53
2017-01-20T10:22:21.503Z,979.53
2017-01-20T10:23:21.459Z,979.45
2017-01-20T10:24:21.414Z,979.52
2017-01-20T10:25:21.369Z,979.51
2017-01-20T10:26:21.323Z,979.47
2017-01-20T10:27:21.278Z,979.54
2017-01-20T10:28:21.232Z,979.46
2017-01-20T10:29:21.188Z,979.48
2017-01-20T10:30:21.142Z,979.55
2017-01-20T10:31:21.099Z,979.53
2017-01-20T10:32:21.053Z,979.5
2017-01-20T10:33:21.008Z,979.56
2017-01-20T10:34:20.966Z,979.47
2017-01-20T10:35:20.921Z,979.5
2017-01-20T10:36:20.873Z,979.47
2017-01-20T10:37:20.829Z,979.48
2017-01-20T10:38:20.785Z,979.46
2017-01-20T10:39:20.739Z,979.41
2017-01-20T10:40:20.694Z,979.44
2017-01-20T10:41:20.650Z,979.43
2017-01-20T10:42:20.605Z,979.45
2017-01-20T10:43:20.559Z,979.42
2017-01-20T10:44:20.515Z,979.43
2017-01-20T10:45:20.470Z,979.38
2017-01-20T10:46:20.424Z,979.35
2017-01-20T10:47:20.380Z,979.39
2017-01-20T10:48:20.341Z,979.36
2017-01-20T10:49:20.289Z,979.35
2017-01-20T10:50:20.245Z,979.39
2017-01-20T10:51:20.200Z,979.39
2017-01-20T10:52:20.157Z,979.36
2017-01-20T10:53:20.110Z,979.38
2017-01-20T10:54:20.065Z,979.37
2017-01-20T10:55:20.021Z,979.4
2017-01-20T10:56:19.979Z,979.37
2017-01-20T10:57:19.931Z,979.38
2017-01-20T10:58:19.885Z,979.36
2017-01-20T10:59:19.840Z,979.33
2017-01-20T11:00:19.795Z,979.34
2017-01-20T11:01:19.750Z,979.33
2017-01-20T11:02:19.706Z,979.3
2017-01-20T11:03:19.663Z,979.32
2017-01-20T11:04:19.621Z,979.34
2017-01-20T11:05:19.569Z,979.37
2017-01-20T11:06:19.525Z,979.36
2017-01-20T11:07:19.482Z,979.32
2017-01-20T11:08:19.437Z,979.32
2017-01-20T11:09:19.391Z,979.35
2017-01-20T11:10:19.346Z,979.33
2017-01-20T11:11:19.302Z,979.36
2017-01-20T11:12:19.257Z,979.3
2017-01-20T11:13:19.209Z,979.32
2017-01-20T11:14:19.174Z,979.25
2017-01-20T11:15:19.122Z,979.25
2017-01-20T11:16:19.075Z,979.26
2017-01-20T11:17:19.033Z,979.31
2017-01-20T11:18:18.987Z,979.27
2017-01-20T11:19:18.942Z,979.27
2017-01-20T11:20:18.897Z,979.24
2017-01-20T11:21:18.852Z,979.24
2017-01-20T11:22:18.808Z,979.21
2017-01-20T11:23:18.761Z,979.22
2017-01-20T11:24:18.716Z,979.21
2017-01-20T11:25:18.673Z,979.19
2017-01-20T11:26:18.629Z,979.2
2017-01-20T11:27:18.583Z,979.11
2017-01-20T11:28:18.539Z,979.12
2017-01-20T11:29:18.493Z,979.13
2017-01-20T11:30:18.449Z,979.16
2017-01-20T11:31:18.403Z,979.1
2017-01-20T11:32:18.360Z,979.09
2017-01-20T11:33:18.315Z,979.12
2017-01-20T11:34:18.268Z,979.06
2017-01-20T11:35:18.224Z,979.04
2017-01-20T11:36:18.182Z,979.02
2017-01-20T11:37:18.140Z,979
2017-01-20T11:38:18.088Z,979.02
2017-01-20T11:39:18.045Z,978.97
2017-01-20T11:40:17.999Z,978.99
2017-01-20T11:41:17.956Z,978.99
2017-01-20T11:42:17.912Z,979
2017-01-20T11:43:17.867Z,978.95
2017-01-20T11:44:17.824Z,978.97
2017-01-20T11:45:17.777Z,978.98
2017-01-20T11:46:17.733Z,978.99
2017-01-20T11:47:17.690Z,978.99
2017-01-20T11:48:17.644Z,978.99
2017-01-20T11:49:17.598Z,979
2017-01-20T11:50:17.555Z,979.01
2017-01-20T11:51:17.509Z,979.05
2017-01-20T11:52:17.467Z,979.02
2017-01-20T11:53:17.419Z,979.05
2017-01-20T11:54:17.376Z,979.03
2017-01-20T11:55:17.330Z,979.02
2017-01-20T11:56:17.285Z,978.99
2017-01-20T11:57:17.240Z,978.98
2017-01-20T11:58:17.196Z,978.97
2017-01-20T11:59:17.151Z,978.9
2017-01-20T12:00:17.105Z,978.95
2017-01-20T12:01:17.061Z,978.9
2017-01-20T12:02:17.017Z,978.9
2017-01-20T12:03:16.972Z,978.88
2017-01-20T12:04:16.925Z,978.85
2017-01-20T12:05:16.881Z,978.88
2017-01-20T12:06:16.837Z,978.84
2017-01-20T12:07:16.791Z,978.79
2017-01-20T12:08:16.747Z,978.82
2017-01-20T12:09:16.709Z,978.84
2017-01-20T12:10:16.656Z,978.79
2017-01-20T12:11:16.611Z,978.71
2017-01-20T12:12:16.566Z,978.7
2017-01-20T12:13:16.521Z,978.72
2017-01-20T12:14:16.476Z,978.71
2017-01-20T12:15:16.432Z,978.68
2017-01-20T12:16:16.387Z,978.65
2017-01-20T12:17:16.341Z,978.66
2017-01-20T12:18:16.297Z,978.64
2017-01-20T12:19:16.251Z,978.63
2017-01-20T12:20:16.205Z,978.66
2017-01-20T12:21:16.161Z,978.66
2017-01-20T12:22:16.115Z,978.65
2017-01-20T12:23:16.069Z,978.63
2017-01-20T12:24:16.026Z,978.64
2017-01-20T12:25:15.979Z,978.61
2017-01-20T12:26:15.935Z,978.59
2017-01-20T12:27:15.890Z,978.53
2017-01-20T12:28:15.845Z,978.58
2017-01-20T12:29:15.799Z,978.61
2017-01-20T12:30:15.755Z,978.54
2017-01-20T12:31:15.711Z,978.54
2017-01-20T12:32:15.666Z,978.57
2017-01-20T12:33:15.620Z,978.52
2017-01-20T12:34:15.574Z,978.52
2017-01-20T12:35:15.529Z,978.55
2017-01-20T12:36:15.484Z,978.52
2017-01-20T12:37:15.439Z,978.55
2017-01-20T12:38:15.395Z,978.52
2017-01-20T12:39:15.351Z,978.56
2017-01-20T12:40:15.305Z,978.57
2017-01-20T12:41:15.260Z,978.53
2017-01-20T12:42:15.217Z,978.52
2017-01-20T12:43:15.170Z,978.53
2017-01-20T12:44:15.124Z,978.54
2017-01-20T12:45:15.079Z,978.51
2017-01-20T12:46:15.036Z,978.47
2017-01-20T12:47:14.991Z,978.55
2017-01-20T12:48:14.945Z,978.58
2017-01-20T12:49:14.903Z,978.5
2017-01-20T12:50:14.860Z,978.49
2017-01-20T12:51:14.811Z,978.5
2017-01-20T12:52:14.768Z,978.45
2017-01-20T12:53:14.722Z,978.44
2017-01-20T12:54:14.678Z,978.45
2017-01-20T12:55:14.632Z,978.43
2017-01-20T12:56:14.588Z,978.41
2017-01-20T12:57:14.546Z,978.45
2017-01-20T12:58:14.497Z,978.45
2017-01-20T12:59:14.452Z,978.47
2017-01-20T13:00:14.408Z,978.42
2017-01-20T13:01:14.363Z,978.43
2017-01-20T13:02:14.319Z,978.42
2017-01-20T13:03:14.274Z,978.44
2017-01-20T13:04:14.229Z,978.47
2017-01-20T13:05:14.185Z,978.45
2017-01-20T13:06:14.139Z,978.45
2017-01-20T13:07:14.095Z,978.48
2017-01-20T13:08:14.051Z,978.44
2017-01-20T13:09:14.004Z,978.48
2017-01-20T13:10:13.963Z,978.45
2017-01-20T13:11:13.917Z,978.44
2017-01-20T13:12:13.872Z,978.44
2017-01-20T13:13:13.824Z,978.43
2017-01-20T13:14:13.782Z,978.37
2017-01-20T13:15:13.737Z,978.38
2017-01-20T13:16:13.692Z,978.35
2017-01-20T13:17:13.647Z,978.37
2017-01-20T13:18:13.608Z,978.41
2017-01-20T13:19:13.559Z,978.43
2017-01-20T13:20:13.514Z,978.36
2017-01-20T13:21:13.469Z,978.32
2017-01-20T13:22:13.424Z,978.29
2017-01-20T13:23:13.387Z,978.34
2017-01-20T13:24:13.334Z,978.33
2017-01-20T13:25:13.289Z,978.26
2017-01-20T13:26:13.246Z,978.36
2017-01-20T13:27:13.200Z,978.31
2017-01-20T13:28:13.156Z,978.34
2017-01-20T13:29:13.112Z,978.28
2017-01-20T13:30:13.068Z,978.34
2017-01-20T13:31:13.021Z,978.33
2017-01-20T13:32:12.975Z,978.32
2017-01-20T13:33:12.932Z,978.34
2017-01-20T13:34:12.888Z,978.35
2017-01-20T13:35:12.842Z,978.3
2017-01-20T13:36:12.798Z,978.32
2017-01-20T13:37:12.753Z,978.33
2017-01-20T13:38:12.708Z,978.35
2017-01-20T13:39:12.665Z,978.28
2017-01-20T13:40:12.624Z,978.29
2017-01-20T13:41:12.574Z,978.29
2017-01-20T13:42:12.530Z,978.29
2017-01-20T13:43:12.485Z,978.26
2017-01-20T13:44:12.443Z,978.31
2017-01-20T13:45:12.400Z,978.31
2017-01-20T13:46:12.351Z,978.28
2017-01-20T13:47:12.305Z,978.29
2017-01-20T13:48:12.261Z,978.29
2017-01-20T13:49:12.216Z,978.29
2017-01-20T13:50:12.176Z,978.29
2017-01-20T13:51:12.128Z,978.3
2017-01-20T13:52:12.085Z,978.3
2017-01-20T13:53:12.038Z,978.35
2017-01-20T13:54:11.992Z,978.33
2017-01-20T13:55:11.948Z,978.36
2017-01-20T13:56:11.901Z,978.31
2017-01-20T13:57:11.856Z,978.26
2017-01-20T13:58:11.812Z,978.3
2017-01-20T13:59:11.767Z,978.27
2017-01-20T14:00:11.722Z,978.26
2017-01-20T14:01:11.677Z,978.32
2017-01-20T14:02:11.634Z,978.31
2017-01-20T14:03:11.590Z,978.36
2017-01-20T14:04:11.544Z,978.43
2017-01-20T14:05:11.496Z,978.31
2017-01-20T14:06:11.452Z,978.41
2017-01-20T14:07:11.409Z,978.36
2017-01-20T14:08:11.362Z,978.37
2017-01-20T14:09:11.320Z,978.35
2017-01-20T14:10:11.271Z,978.38
2017-01-20T14:11:11.229Z,978.35
2017-01-20T14:12:11.181Z,978.38
2017-01-20T14:13:11.138Z,978.32
2017-01-20T14:14:11.097Z,978.32
2017-01-20T14:15:11.049Z,978.29
2017-01-20T14:16:10.999Z,978.32
2017-01-20T14:17:10.956Z,978.38
2017-01-20T14:18:10.915Z,978.38
2017-01-20T14:19:10.872Z,978.36
2017-01-20T14:20:10.821Z,978.35
2017-01-20T14:21:10.777Z,978.34
2017-01-20T14:22:10.730Z,978.34
2017-01-20T14:23:10.685Z,978.36
2017-01-20T14:24:10.642Z,978.34
2017-01-20T14:25:10.595Z,978.35
2017-01-20T14:26:10.574Z,978.31
2017-01-20T14:27:10.505Z,978.35
2017-01-20T14:28:10.463Z,978.34
2017-01-20T14:29:10.416Z,978.36
2017-01-20T14:30:10.371Z,978.33
2017-01-20T14:31:10.325Z,978.32
2017-01-20T14:32:10.280Z,978.28
2017-01-20T14:33:10.235Z,978.29
2017-01-20T14:34:10.194Z,978.32
2017-01-20T14:35:10.144Z,978.33
2017-01-20T14:36:10.100Z,978.27
2017-01-20T14:37:10.056Z,978.3
2017-01-20T14:38:10.007Z,978.27
2017-01-20T14:39:09.968Z,978.28
2017-01-20T14:40:09.919Z,978.31
2017-01-20T14:41:09.874Z,978.32
2017-01-20T14:42:09.828Z,978.21
2017-01-20T14:43:09.782Z,978.26
2017-01-20T14:44:09.734Z,978.29
2017-01-20T14:45:09.690Z,978.31
2017-01-20T14:46:09.645Z,978.3
2017-01-20T14:47:09.602Z,978.28
2017-01-20T14:48:09.555Z,978.26
2017-01-20T14:49:09.509Z,978.2
2017-01-20T14:50:09.465Z,978.33
2017-01-20T14:51:09.418Z,978.36
2017-01-20T14:52:09.372Z,978.32
2017-01-20T14:53:09.330Z,978.28
2017-01-20T14:54:09.285Z,978.31
2017-01-20T14:55:09.237Z,978.27
2017-01-20T14:56:09.202Z,978.26
2017-01-20T14:57:09.145Z,978.31
2017-01-20T14:58:09.101Z,978.32
2017-01-20T14:59:09.055Z,978.29
2017-01-20T15:00:09.009Z,978.29
2017-01-20T15:01:08.966Z,978.26
2017-01-20T15:02:08.917Z,978.2
2017-01-20T15:03:08.873Z,978.19
2017-01-20T15:04:08.826Z,978.17
2017-01-20T15:05:08.783Z,978.18
2017-01-20T15:06:08.737Z,978.21
2017-01-20T15:07:08.690Z,978.22
2017-01-20T15:08:08.646Z,978.2
2017-01-20T15:09:08.600Z,978.16
2017-01-20T15:10:08.554Z,978.14
2017-01-20T15:11:08.509Z,978.18
2017-01-20T15:12:08.463Z,978.16
2017-01-20T15:13:08.416Z,978.16
2017-01-20T15:14:08.372Z,978.18
2017-01-20T15:15:08.327Z,978.15
2017-01-20T15:16:08.283Z,978.2
2017-01-20T15:17:08.234Z,978.16
2017-01-20T15:18:08.188Z,978.16
2017-01-20T15:19:08.143Z,978.17
2017-01-20T15:20:08.096Z,978.13
2017-01-20T15:21:08.050Z,978.12
2017-01-20T15:22:08.005Z,978.15
2017-01-20T15:23:07.959Z,978.15
2017-01-20T15:24:07.913Z,978.07
2017-01-20T15:25:07.866Z,978.13
2017-01-20T15:26:07.821Z,978.12
2017-01-20T15:27:07.778Z,978.17
2017-01-20T15:28:07.731Z,978.23
2017-01-20T15:29:07.687Z,978.2
2017-01-20T15:30:07.637Z,978.25
2017-01-20T15:31:07.592Z,978.22
2017-01-20T15:32:07.546Z,978.22
2017-01-20T15:33:07.500Z,978.23
2017-01-20T15:34:07.455Z,978.23
2017-01-20T15:35:07.410Z,978.26
2017-01-20T15:36:07.363Z,978.29
2017-01-20T15:37:07.316Z,978.33
2017-01-20T15:38:07.271Z,978.33
2017-01-20T15:39:07.223Z,978.25
2017-01-20T15:40:07.176Z,978.32
2017-01-20T15:41:07.130Z,978.36
2017-01-20T15:42:07.081Z,978.35
